Time;durP1;ratioP1;P1;durP2;ratioP2;P2;SDS_P1;SDS_P2;PMS_P1;PMS_P2;Temp;Humidity;BMP_temperature;BMP_pressure;BME280_temperature;BME280_humidity;BME280_pressure;Samples;Min_cycle;Max_cycle;Signal;HPM_P1;HPM_P2
2021/06/22 00:00:07;;;;;;;4.23;2.30;;;;;;;16.42;100.00;100307.88;5213757;28;20391;-79
2021/06/22 00:02:37;;;;;;;4.38;2.50;;;;;;;16.29;100.00;100306.94;5209184;28;20650;-77
2021/06/22 00:05:08;;;;;;;4.43;2.35;;;;;;;16.47;100.00;100316.38;5211656;28;20040;-77
2021/06/22 00:07:39;;;;;;;2.10;1.90;;;;;;;16.60;100.00;100313.78;5211781;28;20025;-77
2021/06/22 00:10:09;;;;;;;5.00;1.92;;;;;;;16.73;100.00;100323.44;5211347;28;20075;-77
2021/06/22 00:12:40;;;;;;;6.70;2.50;;;;;;;16.66;100.00;100318.66;5211889;28;20112;-78
2021/06/22 00:15:13;;;;;;;3.22;2.10;;;;;;;16.47;100.00;100324.28;5211824;28;20568;-79
2021/06/22 00:17:44;;;;;;;3.40;2.38;;;;;;;16.13;100.00;100337.84;5208762;28;20490;-78
2021/06/22 00:20:16;;;;;;;3.72;2.00;;;;;;;16.28;100.00;100329.00;5201619;28;20037;-78
2021/06/22 00:22:47;;;;;;;2.80;1.80;;;;;;;16.43;100.00;100341.25;5214941;28;20037;-77
2021/06/22 00:25:19;;;;;;;4.32;2.05;;;;;;;16.41;100.00;100337.00;5213724;28;20029;-77
2021/06/22 00:27:50;;;;;;;3.60;2.00;;;;;;;16.49;100.00;100346.13;5205554;28;20429;-80
2021/06/22 00:30:22;;;;;;;2.90;1.80;;;;;;;16.64;100.00;100337.25;5204482;28;20029;-79
2021/06/22 00:32:53;;;;;;;3.33;1.95;;;;;;;16.62;99.34;100336.50;5214021;28;20040;-79
2021/06/22 00:35:24;;;;;;;2.10;1.60;;;;;;;16.59;99.11;100328.75;5204737;28;20037;-78
2021/06/22 00:37:54;;;;;;;3.55;1.95;;;;;;;16.75;99.09;100336.56;5212837;28;20032;-78
2021/06/22 00:40:24;;;;;;;3.40;1.93;;;;;;;16.64;100.00;100333.75;5214432;28;20090;-78
2021/06/22 00:42:54;;;;;;;2.50;1.90;;;;;;;16.58;99.82;100329.72;5214208;28;20299;-78
2021/06/22 00:45:30;;;;;;;4.10;1.70;;;;;;;16.58;99.74;100329.72;5209719;28;20770;-78
2021/06/22 00:48:01;;;;;;;;;;;;;;;16.71;99.83;100335.06;5202922;28;20442;-78
2021/06/22 00:50:32;;;;;;;2.00;1.50;;;;;;;16.72;99.30;100332.31;5200532;28;19956;-78
2021/06/22 00:53:02;;;;;;;4.28;1.70;;;;;;;16.68;98.86;100315.00;5202974;28;20460;-77
2021/06/22 00:55:33;;;;;;;3.15;1.40;;;;;;;16.73;99.11;100322.63;5204487;28;20029;-78
2021/06/22 00:58:06;;;;;;;3.55;1.80;;;;;;;16.73;99.35;100336.66;5206465;28;20498;-77
2021/06/22 01:00:38;;;;;;;5.07;2.33;;;;;;;16.56;100.00;100334.25;5213952;28;20025;-78
2021/06/22 01:03:08;;;;;;;5.07;2.20;;;;;;;16.46;100.00;100330.50;5217301;28;20033;-78
2021/06/22 01:05:38;;;;;;;3.97;2.60;;;;;;;16.11;100.00;100325.69;5211280;28;20029;-77
2021/06/22 01:08:11;;;;;;;4.70;2.53;;;;;;;16.22;100.00;100332.00;5208456;28;20100;-78
2021/06/22 01:10:41;;;;;;;3.80;2.20;;;;;;;16.31;100.00;100335.84;5215918;28;20411;-78
2021/06/22 01:13:12;;;;;;;3.28;2.10;;;;;;;16.27;100.00;100345.75;5216803;28;20064;-78
2021/06/22 01:15:42;;;;;;;3.80;2.22;;;;;;;16.23;100.00;100348.69;5207852;28;20029;-77
2021/06/22 01:18:12;;;;;;;4.03;2.20;;;;;;;16.38;100.00;100368.88;5214064;28;20033;-77
2021/06/22 01:20:43;;;;;;;4.97;2.13;;;;;;;16.43;100.00;100367.63;5212046;28;20093;-77
2021/06/22 01:23:13;;;;;;;2.53;1.92;;;;;;;16.48;99.49;100376.09;5206932;28;20303;-77
2021/06/22 01:25:44;;;;;;;3.95;2.30;;;;;;;16.50;98.63;100373.34;5209540;28;20029;-77
2021/06/22 01:28:14;;;;;;;3.03;2.10;;;;;;;16.31;99.33;100376.28;5207792;28;20032;-78
2021/06/22 01:30:44;;;;;;;4.53;2.28;;;;;;;16.34;99.05;100378.72;5213775;28;20403;-78
2021/06/22 01:33:14;;;;;;;3.78;2.17;;;;;;;16.26;100.00;100370.44;5216121;28;20048;-79
2021/06/22 01:35:45;;;;;;;3.90;2.35;;;;;;;16.25;99.09;100373.16;5217254;28;20494;-78
2021/06/22 01:38:15;;;;;;;3.83;2.13;;;;;;;16.25;99.64;100374.00;5215169;28;20094;-79
2021/06/22 01:40:48;;;;;;;5.13;2.53;;;;;;;16.27;99.99;100369.50;5215656;28;20518;-78
2021/06/22 01:43:23;;;;;;;2.88;1.98;;;;;;;16.19;100.00;100368.28;5214961;28;20275;-79
2021/06/22 01:45:53;;;;;;;5.78;2.20;;;;;;;16.28;100.00;100365.91;5216714;28;20051;-81
2021/06/22 01:48:24;;;;;;;3.83;2.70;;;;;;;16.07;100.00;100367.22;5214261;28;20025;-79
2021/06/22 01:50:54;;;;;;;4.45;3.30;;;;;;;15.78;100.00;100357.63;5216566;28;20049;-77
2021/06/22 01:53:25;;;;;;;5.82;3.13;;;;;;;15.83;100.00;100355.53;5214854;28;20086;-78
2021/06/22 01:55:55;;;;;;;4.57;3.60;;;;;;;15.78;100.00;100357.63;5208549;28;20029;-78
2021/06/22 01:58:26;;;;;;;4.35;3.30;;;;;;;15.84;100.00;100370.41;5208933;28;20029;-77
2021/06/22 02:00:58;;;;;;;7.95;4.00;;;;;;;15.66;100.00;100368.00;5213698;28;20052;-78
2021/06/22 02:03:28;;;;;;;5.25;3.72;;;;;;;15.55;100.00;100358.13;5217450;28;20104;-77
2021/06/22 02:05:59;;;;;;;7.13;4.45;;;;;;;15.41;100.00;100365.16;5205310;28;20167;-78
2021/06/22 02:08:29;;;;;;;5.95;4.35;;;;;;;15.24;100.00;100360.84;5217761;28;20025;-78
2021/06/22 02:11:00;;;;;;;7.35;4.45;;;;;;;15.34;100.00;100358.56;5213128;28;20534;-78
2021/06/22 02:13:30;;;;;;;6.45;4.05;;;;;;;15.37;100.00;100374.16;5213058;28;20053;-78
2021/06/22 02:16:00;;;;;;;6.28;3.63;;;;;;;15.47;100.00;100377.94;5216606;28;20024;-77
2021/06/22 02:18:31;;;;;;;8.20;3.83;;;;;;;15.56;100.00;100383.53;5212003;28;20037;-78
2021/06/22 02:21:04;;;;;;;7.50;3.60;;;;;;;15.63;100.00;100384.88;5212963;28;20107;-78
2021/06/22 02:23:35;;;;;;;6.97;3.08;;;;;;;15.49;100.00;100395.38;5208767;28;20084;-78
2021/06/22 02:26:06;;;;;;;7.25;3.28;;;;;;;15.47;100.00;100414.81;5215948;28;20029;-78
2021/06/22 02:28:36;;;;;;;6.80;3.25;;;;;;;15.29;100.00;100426.41;5211424;28;20036;-78
2021/06/22 02:31:07;;;;;;;8.20;3.20;;;;;;;15.32;98.74;100429.72;5213529;28;20034;-78
2021/06/22 02:33:37;;;;;;;8.93;3.40;;;;;;;15.30;97.29;100425.47;5214824;28;20052;-77
2021/06/22 02:36:08;;;;;;;9.00;3.30;;;;;;;15.02;97.33;100434.06;5213854;28;20022;-78
2021/06/22 02:38:38;;;;;;;9.32;3.00;;;;;;;15.05;96.50;100443.56;5216025;28;20522;-78
2021/06/22 02:41:08;;;;;;;9.02;3.15;;;;;;;15.07;96.32;100441.69;5209210;28;20071;-78
2021/06/22 02:43:39;;;;;;;6.50;2.67;;;;;;;15.25;94.01;100457.31;5210834;28;20029;-79
2021/06/22 02:46:09;;;;;;;8.07;3.15;;;;;;;14.93;94.46;100466.16;5217444;28;20033;-78
2021/06/22 02:48:40;;;;;;;9.07;3.28;;;;;;;14.96;94.18;100466.00;5206447;28;20017;-78
2021/06/22 02:51:10;;;;;;;7.85;3.08;;;;;;;14.99;93.51;100476.34;5204844;28;20057;-78
2021/06/22 02:53:40;;;;;;;10.45;3.05;;;;;;;15.33;92.58;100478.00;5211589;28;20038;-78
2021/06/22 02:56:11;;;;;;;8.65;2.90;;;;;;;15.27;92.63;100471.25;5216181;28;20042;-78
2021/06/22 02:58:41;;;;;;;6.75;2.80;;;;;;;14.89;94.00;100492.72;5218270;28;20621;-78
2021/06/22 03:01:11;;;;;;;9.35;2.92;;;;;;;15.10;92.22;100479.25;5213411;28;20033;-79
2021/06/22 03:03:41;;;;;;;9.00;3.03;;;;;;;14.92;93.65;100475.00;5215895;28;20032;-78
2021/06/22 03:06:12;;;;;;;10.13;2.80;;;;;;;15.10;92.05;100479.25;5213792;28;20282;-78
2021/06/22 03:08:42;;;;;;;10.57;2.85;;;;;;;15.21;91.90;100476.00;5214525;28;20033;-79
2021/06/22 03:11:12;;;;;;;7.88;3.00;;;;;;;14.91;92.89;100478.56;5218064;28;20067;-78
2021/06/22 03:13:43;;;;;;;9.52;3.13;;;;;;;14.91;93.73;100485.59;5212222;28;20044;-79
2021/06/22 03:16:13;;;;;;;10.55;3.28;;;;;;;14.87;93.67;100476.16;5215929;28;20056;-78
2021/06/22 03:18:43;;;;;;;8.77;3.33;;;;;;;14.78;94.05;100476.66;5217864;28;20087;-78
2021/06/22 03:21:14;;;;;;;11.70;3.60;;;;;;;14.96;93.19;100473.88;5204340;28;20120;-78
2021/06/22 03:23:44;;;;;;;11.63;3.35;;;;;;;15.06;93.20;100476.84;5218931;28;20095;-78
2021/06/22 03:26:16;;;;;;;7.88;3.42;;;;;;;15.08;92.77;100480.25;5207007;28;20021;-78
2021/06/22 03:28:46;;;;;;;11.30;3.88;;;;;;;15.12;93.00;100466.84;5205788;28;20021;-78
2021/06/22 03:31:17;;;;;;;9.43;3.42;;;;;;;15.14;92.83;100467.59;5208575;28;20087;-79
2021/06/22 03:33:47;;;;;;;12.88;3.33;;;;;;;15.28;91.62;100461.56;5206708;28;20033;-79
2021/06/22 03:36:17;;;;;;;11.35;3.47;;;;;;;15.33;93.01;100460.41;5205315;28;20033;-78
2021/06/22 03:38:48;;;;;;;10.10;4.03;;;;;;;15.15;93.39;100466.66;5213371;28;20482;-78
2021/06/22 03:41:19;;;;;;;10.20;4.07;;;;;;;15.16;93.83;100467.53;5201949;28;20509;-78
2021/06/22 03:43:49;;;;;;;10.55;4.05;;;;;;;15.06;93.89;100466.31;5209757;28;20033;-78
2021/06/22 03:46:20;;;;;;;16.13;4.35;;;;;;;15.13;93.60;100458.00;5204618;28;20087;-78
2021/06/22 03:48:50;;;;;;;15.30;4.47;;;;;;;15.00;94.24;100464.88;5210527;28;20467;-77
2021/06/22 03:51:21;;;;;;;12.82;4.57;;;;;;;15.01;93.73;100476.28;5212409;28;20029;-79
2021/06/22 03:53:51;;;;;;;12.02;4.10;;;;;;;15.19;93.27;100489.25;5210978;28;20454;-79
2021/06/22 03:56:24;;;;;;;11.43;4.22;;;;;;;15.15;92.88;100486.91;5208338;28;20040;-79
2021/06/22 03:58:55;;;;;;;12.07;4.55;;;;;;;15.02;94.76;100502.50;5205279;28;20036;-78
2021/06/22 04:01:25;;;;;;;14.45;5.13;;;;;;;15.09;94.20;100497.75;5211568;28;20025;-78
2021/06/22 04:03:55;;;;;;;10.57;4.97;;;;;;;15.00;94.23;100508.78;5210505;28;20068;-78
2021/06/22 04:06:26;;;;;;;10.93;4.70;;;;;;;14.98;94.82;100495.69;5207314;28;20464;-78
2021/06/22 04:08:56;;;;;;;11.50;4.78;;;;;;;15.23;94.01;100497.84;5208306;28;20306;-79
2021/06/22 04:11:28;;;;;;;14.43;5.28;;;;;;;15.22;93.97;100499.59;5207144;28;20031;-80
2021/06/22 04:13:58;;;;;;;16.05;5.38;;;;;;;15.12;94.27;100493.16;5208083;28;20082;-77
2021/06/22 04:16:28;;;;;;;15.57;5.18;;;;;;;15.23;93.40;100488.16;5204956;28;20037;-77
2021/06/22 04:18:59;;;;;;;14.30;4.88;;;;;;;15.09;94.50;100485.44;5213963;28;20105;-79
2021/06/22 04:21:29;;;;;;;13.85;5.32;;;;;;;15.24;94.77;100499.53;5214554;28;20399;-78
2021/06/22 04:23:59;;;;;;;12.48;4.55;;;;;;;15.39;93.55;100496.91;5206229;28;20028;-80
2021/06/22 04:26:29;;;;;;;11.85;4.70;;;;;;;15.30;93.71;100507.97;5211396;28;20029;-79
2021/06/22 04:29:00;;;;;;;13.15;5.35;;;;;;;15.45;93.01;100507.13;5204595;28;20468;-78
2021/06/22 04:31:31;;;;;;;10.38;4.80;;;;;;;15.49;92.10;100502.50;5210298;28;20094;-78
2021/06/22 04:34:01;;;;;;;11.68;4.95;;;;;;;15.38;92.52;100499.66;5214848;28;20031;-80
2021/06/22 04:36:31;;;;;;;14.00;5.22;;;;;;;15.32;93.38;100503.47;5209783;28;20514;-78
2021/06/22 04:39:02;;;;;;;14.00;5.05;;;;;;;15.49;93.11;100506.00;5209295;28;20484;-78
2021/06/22 04:41:32;;;;;;;13.65;5.00;;;;;;;15.55;92.13;100513.53;5214158;28;20029;-79
2021/06/22 04:44:03;;;;;;;13.52;4.70;;;;;;;15.68;91.55;100519.81;5213655;28;20120;-78
2021/06/22 04:46:34;;;;;;;14.98;5.03;;;;;;;15.83;91.17;100521.59;5210331;28;20033;-78
2021/06/22 04:49:04;;;;;;;14.13;4.72;;;;;;;15.87;90.63;100525.72;5206909;28;20400;-79
2021/06/22 04:51:34;;;;;;;14.27;4.78;;;;;;;15.94;88.90;100532.38;5210684;28;20036;-80
2021/06/22 04:54:07;;;;;;;9.48;4.47;;;;;;;16.18;89.29;100527.44;5209370;28;20085;-78
2021/06/22 04:56:38;;;;;;;12.15;4.95;;;;;;;16.15;89.77;100528.47;5211075;28;20033;-79
2021/06/22 04:59:08;;;;;;;17.48;5.47;;;;;;;15.94;90.26;100537.63;5202730;28;20029;-79
2021/06/22 05:01:39;;;;;;;15.73;4.63;;;;;;;15.77;90.75;100540.41;5211626;28;20132;-78
2021/06/22 05:04:11;;;;;;;10.13;4.63;;;;;;;16.13;90.61;100540.03;5210132;28;20041;-79
2021/06/22 05:06:41;;;;;;;16.65;4.78;;;;;;;16.17;90.23;100544.19;5208249;28;20033;-78
2021/06/22 05:09:12;;;;;;;15.02;4.43;;;;;;;15.99;89.54;100555.81;5215010;28;20022;-79
2021/06/22 05:11:42;;;;;;;11.43;4.40;;;;;;;15.97;89.24;100544.50;5215500;28;20139;-77
2021/06/22 05:14:12;;;;;;;14.20;4.38;;;;;;;16.03;89.79;100554.72;5213437;28;20121;-79
2021/06/22 05:16:43;;;;;;;20.63;4.55;;;;;;;16.09;89.47;100554.34;5204964;28;20069;-78
2021/06/22 05:19:13;;;;;;;12.05;4.45;;;;;;;16.30;88.44;100553.06;5209502;28;20040;-80
2021/06/22 05:21:44;;;;;;;11.60;3.85;;;;;;;16.73;87.81;100552.25;5211614;28;20032;-80
2021/06/22 05:24:16;;;;;;;11.15;4.03;;;;;;;16.84;87.07;100550.63;5206345;28;20030;-78
2021/06/22 05:26:46;;;;;;;11.80;3.72;;;;;;;16.72;86.54;100559.31;5203623;28;20021;-77
2021/06/22 05:29:16;;;;;;;12.32;4.45;;;;;;;16.71;85.61;100557.59;5209242;28;20036;-78
2021/06/22 05:31:46;;;;;;;12.52;4.65;;;;;;;16.68;84.98;100555.16;5212101;28;20045;-79
2021/06/22 05:34:17;;;;;;;13.73;4.22;;;;;;;17.12;84.25;100569.13;5211948;28;20494;-79
2021/06/22 05:36:48;;;;;;;16.25;4.00;;;;;;;17.39;82.14;100570.06;5215692;28;20033;-78
2021/06/22 05:39:18;;;;;;;12.75;3.80;;;;;;;17.07;81.95;100568.53;5212372;28;20602;-79
2021/06/22 05:41:48;;;;;;;13.33;3.60;;;;;;;17.53;82.02;100576.19;5210957;28;20411;-79
2021/06/22 05:44:19;;;;;;;12.30;3.70;;;;;;;17.28;83.06;100570.69;5213746;28;20272;-79
2021/06/22 05:46:49;;;;;;;10.45;3.10;;;;;;;17.68;81.32;100571.69;5209923;28;20037;-79
2021/06/22 05:49:19;;;;;;;11.55;3.20;;;;;;;17.78;79.85;100557.78;5212187;28;20104;-79
2021/06/22 05:51:51;;;;;;;8.80;3.25;;;;;;;18.34;79.27;100559.34;5212991;28;20025;-79
2021/06/22 05:54:21;;;;;;;10.43;3.30;;;;;;;18.29;78.03;100557.00;5214108;28;20809;-79
2021/06/22 05:56:52;;;;;;;9.50;2.83;;;;;;;18.22;76.70;100544.25;5206668;28;20107;-79
2021/06/22 05:59:22;;;;;;;10.68;3.10;;;;;;;19.08;75.71;100554.03;5201787;28;20029;-80
2021/06/22 06:01:52;;;;;;;14.05;3.20;;;;;;;18.77;76.81;100546.53;5199712;28;20033;-80
2021/06/22 06:04:23;;;;;;;14.20;2.75;;;;;;;19.33;75.10;100542.56;5203567;28;20487;-80
2021/06/22 06:06:54;;;;;;;11.30;3.20;;;;;;;18.84;75.28;100539.00;5199172;28;20024;-80
2021/06/22 06:09:25;;;;;;;10.43;3.30;;;;;;;18.65;76.02;100543.06;5218558;28;20025;-79
2021/06/22 06:11:55;;;;;;;9.23;2.83;;;;;;;18.30;77.81;100549.88;5201418;28;20032;-79
2021/06/22 06:14:26;;;;;;;9.20;2.90;;;;;;;18.19;77.59;100555.88;5214393;28;20112;-79
2021/06/22 06:16:56;;;;;;;11.70;3.00;;;;;;;17.92;77.82;100551.56;5207507;28;20088;-79
2021/06/22 06:19:27;;;;;;;14.15;3.33;;;;;;;18.03;79.58;100546.44;5211988;28;20029;-79
2021/06/22 06:21:57;;;;;;;11.27;3.17;;;;;;;17.90;79.12;100553.47;5213265;28;20029;-77
2021/06/22 06:24:27;;;;;;;11.18;3.08;;;;;;;17.69;80.71;100552.22;5213997;28;20402;-79
2021/06/22 06:27:14;;;;;;;9.10;3.00;;;;;;;17.98;78.51;100552.00;5216605;28;20017;-80
2021/06/22 06:29:51;;;;;;;14.30;3.13;;;;;;;17.89;80.19;100563.22;5212017;28;20354;-80
2021/06/22 06:32:22;;;;;;;10.10;3.03;;;;;;;17.62;79.88;100549.13;5222785;28;20025;-77
2021/06/22 06:34:52;;;;;;;13.63;2.83;;;;;;;18.00;79.53;100559.88;5220385;28;20025;-80
2021/06/22 06:37:22;;;;;;;8.65;2.75;;;;;;;18.00;79.15;100554.56;5217604;28;20076;-78
2021/06/22 06:39:52;;;;;;;12.05;2.92;;;;;;;17.91;80.33;100552.53;5219615;28;20040;-79
2021/06/22 06:42:23;;;;;;;9.33;2.87;;;;;;;18.64;78.25;100549.28;5210340;28;20041;-78
2021/06/22 06:44:53;;;;;;;8.35;2.85;;;;;;;19.91;73.94;100546.16;5208144;28;20319;-78
2021/06/22 06:47:23;;;;;;;8.13;2.60;;;;;;;21.11;70.79;100548.31;5216065;28;20103;-78
2021/06/22 06:49:54;;;;;;;11.32;3.15;;;;;;;21.84;68.18;100545.88;5217483;28;20275;-79
2021/06/22 06:52:24;;;;;;;16.27;3.22;;;;;;;22.09;67.25;100556.22;5209793;28;20103;-80
2021/06/22 06:54:55;;;;;;;12.93;2.90;;;;;;;20.83;69.65;100559.41;5214711;28;20537;-79
2021/06/22 06:57:25;;;;;;;11.30;2.50;;;;;;;21.58;69.66;100569.25;5205703;28;20108;-79
2021/06/22 06:59:55;;;;;;;9.23;2.78;;;;;;;20.93;69.54;100573.66;5213067;28;20021;-79
2021/06/22 07:02:26;;;;;;;9.25;3.00;;;;;;;20.65;70.63;100569.72;5213496;28;20430;-79
2021/06/22 07:04:56;;;;;;;10.27;2.50;;;;;;;20.37;71.62;100571.00;5213174;28;20036;-79
2021/06/22 07:07:26;;;;;;;9.68;2.60;;;;;;;20.28;73.39;100578.81;5216889;28;20275;-79
2021/06/22 07:09:56;;;;;;;10.17;2.90;;;;;;;20.21;72.02;100575.75;5212493;28;20078;-79
2021/06/22 07:12:27;;;;;;;8.90;2.53;;;;;;;19.59;73.72;100570.72;5213160;28;20282;-79
2021/06/22 07:14:57;;;;;;;10.03;2.87;;;;;;;19.16;74.74;100587.94;5216424;28;20282;-79
2021/06/22 07:17:27;;;;;;;11.47;2.90;;;;;;;19.33;74.36;100577.91;5212142;28;20296;-79
2021/06/22 07:19:57;;;;;;;9.68;2.85;;;;;;;18.92;75.47;100587.03;5216220;28;20279;-79
2021/06/22 07:22:28;;;;;;;9.82;2.55;;;;;;;19.19;75.15;100574.50;5211772;28;20068;-79
2021/06/22 07:24:59;;;;;;;9.40;2.67;;;;;;;19.33;74.53;100569.06;5215097;28;20021;-78
2021/06/22 07:27:30;;;;;;;10.20;3.00;;;;;;;19.50;74.21;100571.38;5205876;28;20030;-80
2021/06/22 07:30:01;;;;;;;13.52;2.90;;;;;;;18.79;75.46;100570.28;5205129;28;20044;-79
2021/06/22 07:32:32;;;;;;;11.98;2.65;;;;;;;19.08;75.86;100569.09;5217842;28;20494;-79
2021/06/22 07:35:02;;;;;;;12.00;3.17;;;;;;;18.98;75.29;100578.63;5213596;28;20029;-79
2021/06/22 07:37:32;;;;;;;13.35;2.83;;;;;;;18.53;76.37;100575.66;5213405;28;20663;-79
2021/06/22 07:40:03;;;;;;;10.30;2.80;;;;;;;18.62;75.50;100582.97;5217717;28;20044;-80
2021/06/22 07:42:34;;;;;;;11.30;2.78;;;;;;;19.75;73.75;100572.13;5215814;28;20414;-78
2021/06/22 07:45:05;;;;;;;9.88;2.53;;;;;;;21.40;68.69;100569.91;5211413;28;20029;-78
2021/06/22 07:47:36;;;;;;;6.15;2.03;;;;;;;21.47;66.17;100564.00;5211968;28;20537;-79
2021/06/22 07:50:08;;;;;;;7.85;2.30;;;;;;;21.91;66.22;100563.88;5210852;28;20036;-78
2021/06/22 07:52:39;;;;;;;7.95;2.22;;;;;;;21.93;65.34;100564.59;5215033;28;20030;-79
2021/06/22 07:55:13;;;;;;;7.75;2.70;;;;;;;21.70;67.86;100554.16;5218136;28;20028;-79
2021/06/22 07:57:46;;;;;;;11.13;2.73;;;;;;;20.51;70.68;100561.97;5207333;28;20025;-79
2021/06/22 08:00:38;;;;;;;12.88;3.10;;;;;;;20.07;73.11;100569.78;5206038;28;20545;-78
2021/06/22 08:03:11;;;;;;;10.00;2.88;;;;;;;20.02;72.55;100570.13;5204926;28;20479;-79
2021/06/22 08:05:43;;;;;;;8.75;2.55;;;;;;;19.85;73.99;100573.16;5208372;28;20034;-79
2021/06/22 08:08:18;;;;;;;11.85;2.70;;;;;;;21.11;70.02;100569.56;5209346;28;20696;-79
2021/06/22 08:10:54;;;;;;;9.95;2.92;;;;;;;20.66;69.83;100569.59;5207338;28;20594;-78
2021/06/22 08:13:25;;;;;;;9.13;2.40;;;;;;;20.88;69.52;100567.03;5214504;28;20060;-78
2021/06/22 08:15:57;;;;;;;8.13;2.58;;;;;;;20.65;69.69;100570.56;5215123;28;20037;-78
2021/06/22 08:18:28;;;;;;;12.80;2.90;;;;;;;20.16;71.24;100577.91;5210515;28;20029;-78
2021/06/22 08:21:00;;;;;;;10.52;2.70;;;;;;;20.01;71.80;100572.88;5214965;28;20202;-79
2021/06/22 08:23:30;;;;;;;6.43;2.50;;;;;;;20.07;71.22;100573.28;5206882;28;20048;-78
2021/06/22 08:26:01;;;;;;;9.30;3.05;;;;;;;19.80;72.46;100575.28;5212919;28;20544;-78
2021/06/22 08:28:31;;;;;;;10.07;2.92;;;;;;;20.26;74.09;100575.44;5207835;28;20028;-78
2021/06/22 08:31:01;;;;;;;6.18;2.40;;;;;;;20.21;72.78;100570.47;5213765;28;20368;-78
2021/06/22 08:33:32;;;;;;;10.57;2.60;;;;;;;20.16;71.93;100580.56;5207093;28;20037;-78
2021/06/22 08:36:04;;;;;;;9.18;2.50;;;;;;;20.87;70.21;100583.94;5206072;28;20271;-79
2021/06/22 08:38:34;;;;;;;6.60;2.35;;;;;;;20.56;70.70;100581.91;5198751;28;20395;-79
2021/06/22 08:41:08;;;;;;;9.15;2.67;;;;;;;20.07;71.92;100583.03;5201122;28;20033;-78
2021/06/22 08:43:40;;;;;;;9.07;2.63;;;;;;;20.10;72.46;100586.31;5208334;28;20079;-78
2021/06/22 08:46:10;;;;;;;13.25;3.15;;;;;;;20.28;73.86;100586.78;5208359;28;20032;-79
2021/06/22 08:48:41;;;;;;;9.23;2.75;;;;;;;19.86;72.80;100588.13;5208590;28;20030;-78
2021/06/22 08:51:14;;;;;;;9.50;2.75;;;;;;;20.14;72.45;100593.09;5208721;28;20083;-79
2021/06/22 08:53:44;;;;;;;7.57;2.63;;;;;;;20.41;71.67;100599.00;5210350;28;20021;-79
2021/06/22 08:56:15;;;;;;;8.38;2.78;;;;;;;20.40;71.00;100586.69;5201326;28;20017;-78
2021/06/22 08:58:45;;;;;;;10.70;2.95;;;;;;;20.38;70.82;100593.06;5204600;28;20025;-77
2021/06/22 09:01:15;;;;;;;10.68;3.10;;;;;;;20.37;71.07;100588.72;5206119;28;20029;-77
2021/06/22 09:03:45;;;;;;;10.27;3.10;;;;;;;20.39;71.75;100589.44;5207889;28;20112;-77
2021/06/22 09:06:16;;;;;;;10.52;3.22;;;;;;;21.23;70.52;100586.38;5211379;28;20279;-79
2021/06/22 09:08:51;;;;;;;14.43;2.90;;;;;;;21.39;68.75;100586.84;5207602;28;20032;-77
2021/06/22 09:11:23;;;;;;;10.00;2.80;;;;;;;21.28;70.86;100603.66;5210446;28;20635;-78
2021/06/22 09:13:58;;;;;;;9.23;2.78;;;;;;;21.02;70.08;100601.31;5212697;28;20175;-78
2021/06/22 09:16:29;;;;;;;9.40;2.60;;;;;;;21.06;69.62;100602.81;5206326;28;20044;-79
2021/06/22 09:19:08;;;;;;;7.70;2.97;;;;;;;21.01;69.13;100610.25;5204821;28;20025;-79
2021/06/22 09:21:41;;;;;;;7.55;2.88;;;;;;;20.78;70.35;100605.84;5204455;28;20079;-79
2021/06/22 09:24:29;;;;;;;9.55;2.85;;;;;;;20.47;71.37;100608.31;5205925;28;20081;-79
2021/06/22 09:27:00;;;;;;;13.48;2.90;;;;;;;20.41;70.34;100606.09;5203816;28;20491;-78
2021/06/22 09:29:43;;;;;;;9.05;2.85;;;;;;;20.20;71.74;100605.94;5204266;28;20040;-79
2021/06/22 09:32:28;;;;;;;7.28;2.42;;;;;;;20.46;71.14;100606.63;5205515;28;20091;-79
2021/06/22 09:35:19;;;;;;;8.65;2.50;;;;;;;21.19;70.81;100600.84;5205332;28;20422;-79
2021/06/22 09:37:53;;;;;;;6.53;2.70;;;;;;;21.30;68.17;100612.34;5203566;28;20090;-79
2021/06/22 09:40:27;;;;;;;8.13;2.55;;;;;;;21.55;68.69;100609.41;5201132;28;20128;-79
2021/06/22 09:42:58;;;;;;;8.23;2.80;;;;;;;20.52;70.58;100617.63;5203249;28;20080;-78
2021/06/22 09:45:30;;;;;;;8.07;2.90;;;;;;;20.86;71.00;100612.31;5201549;28;20104;-78
2021/06/22 09:48:01;;;;;;;10.60;2.92;;;;;;;20.50;71.30;100608.91;5207577;28;20064;-79
2021/06/22 09:50:44;;;;;;;12.20;2.63;;;;;;;20.39;71.41;100616.84;5208108;28;20037;-79
2021/06/22 09:53:27;;;;;;;6.70;2.38;;;;;;;20.56;70.51;100624.41;5209690;28;20545;-79
2021/06/22 09:56:00;;;;;;;7.65;2.65;;;;;;;20.03;71.74;100640.81;5207982;28;20029;-80
2021/06/22 09:58:57;;;;;;;11.73;3.28;;;;;;;20.24;72.16;100649.00;5208123;28;20039;-79
2021/06/22 10:01:33;;;;;;;9.13;2.85;;;;;;;20.20;71.82;100653.72;5202161;28;20044;-78
2021/06/22 10:04:19;;;;;;;11.65;2.88;;;;;;;20.22;71.48;100650.91;5201501;28;20060;-78
2021/06/22 10:06:52;;;;;;;;;;;;;;;20.07;72.01;100655.56;5213829;28;21306;-79
2021/06/22 10:09:33;;;;;;;8.07;2.60;;;;;;;20.52;71.44;100641.53;5209149;28;20509;-79
2021/06/22 10:12:09;;;;;;;8.88;2.72;;;;;;;20.39;70.90;100654.03;5208324;28;20036;-78
2021/06/22 10:14:43;;;;;;;9.82;2.80;;;;;;;20.46;70.67;100641.16;5215926;28;20049;-78
2021/06/22 10:17:18;;;;;;;9.45;2.65;;;;;;;20.29;70.80;100639.72;5212580;28;20592;-81
2021/06/22 10:19:54;;;;;;;9.23;2.50;;;;;;;20.53;70.70;100643.22;5212655;28;20124;-78
2021/06/22 10:22:26;;;;;;;11.73;2.55;;;;;;;20.50;70.04;100643.44;5216435;28;20439;-81
2021/06/22 10:24:59;;;;;;;10.43;2.25;;;;;;;20.34;70.72;100634.94;5209497;28;20048;-78
2021/06/22 10:27:30;;;;;;;10.48;3.03;;;;;;;20.30;70.55;100638.78;5208093;28;20037;-80
2021/06/22 10:30:05;;;;;;;8.00;2.53;;;;;;;20.67;69.71;100635.03;5211374;28;20025;-80
2021/06/22 10:32:35;;;;;;;7.38;2.28;;;;;;;20.74;69.17;100638.94;5215311;28;20029;-79
2021/06/22 10:35:11;;;;;;;6.68;2.30;;;;;;;20.45;68.96;100640.28;5214379;28;20031;-79
2021/06/22 10:37:57;;;;;;;10.38;2.63;;;;;;;20.33;68.80;100643.84;5208812;28;20112;-79
2021/06/22 10:40:31;;;;;;;8.00;2.40;;;;;;;20.84;70.54;100639.94;5205086;28;20485;-80
2021/06/22 10:43:03;;;;;;;7.43;2.50;;;;;;;20.95;68.18;100647.97;5209267;28;20033;-79
2021/06/22 10:45:52;;;;;;;5.72;2.40;;;;;;;20.63;68.44;100646.88;5212973;28;20052;-79
2021/06/22 10:48:22;;;;;;;13.05;2.83;;;;;;;20.17;70.78;100648.63;5215039;28;20024;-78
2021/06/22 10:50:53;;;;;;;7.85;2.15;;;;;;;20.41;69.52;100657.41;5210435;28;20443;-79
2021/06/22 10:53:40;;;;;;;7.50;2.40;;;;;;;20.43;70.41;100647.53;5206419;28;20498;-77
2021/06/22 10:56:16;;;;;;;6.55;2.38;;;;;;;20.73;71.54;100653.19;5201994;28;20391;-79
2021/06/22 10:59:05;;;;;;;;;;;;;;;20.67;70.29;100656.28;5205521;28;20029;-80
2021/06/22 11:01:56;;;;;;;8.45;2.55;;;;;;;20.54;70.98;100660.00;5211723;28;20011;-79
2021/06/22 11:04:27;;;;;;;7.95;2.25;;;;;;;20.28;71.28;100663.75;5212536;28;20076;-78
2021/06/22 11:07:06;;;;;;;6.93;2.40;;;;;;;20.24;71.51;100671.09;5215570;28;20517;-78
2021/06/22 11:09:36;;;;;;;6.45;2.10;;;;;;;20.28;69.89;100667.25;5207995;28;20025;-77
2021/06/22 11:12:19;;;;;;;7.50;2.10;;;;;;;20.16;69.85;100673.44;5213337;28;20091;-79
2021/06/22 11:14:58;;;;;;;6.57;2.35;;;;;;;20.15;70.31;100676.22;5212863;28;20035;-78
2021/06/22 11:17:43;;;;;;;9.68;2.72;;;;;;;20.15;69.84;100671.75;5215451;28;20067;-79
2021/06/22 11:20:15;;;;;;;8.47;2.40;;;;;;;20.35;71.17;100663.19;5211239;28;20037;-78
2021/06/22 11:23:05;;;;;;;8.25;2.20;;;;;;;20.48;69.57;100671.09;5209382;28;20283;-78
2021/06/22 11:25:50;;;;;;;6.38;2.03;;;;;;;20.67;68.48;100655.47;5204406;28;20022;-78
2021/06/22 11:28:23;;;;;;;8.40;2.00;;;;;;;20.97;67.46;100665.50;5212491;28;20037;-79
2021/06/22 11:31:01;;;;;;;9.43;2.17;;;;;;;20.82;68.51;100658.66;5212518;28;20654;-78
2021/06/22 11:33:32;;;;;;;8.82;2.10;;;;;;;20.71;68.32;100660.44;5219549;28;20666;-79
2021/06/22 11:36:21;;;;;;;6.50;2.30;;;;;;;20.63;68.31;100649.53;5215482;28;20032;-78
2021/06/22 11:39:10;;;;;;;5.85;1.85;;;;;;;20.83;68.86;100644.44;5214181;28;20027;-79
2021/06/22 11:42:01;;;;;;;6.88;2.00;;;;;;;21.09;67.44;100642.44;5208637;28;20076;-78
2021/06/22 11:44:34;;;;;;;8.48;2.30;;;;;;;21.41;67.34;100644.25;5207759;28;20040;-77